createdAt,value
2018-08-17T00:00:39.142Z,65.60
2018-08-17T00:03:07.811Z,65.70
2018-08-17T00:05:36.652Z,64.90
2018-08-17T00:08:05.289Z,66.00
2018-08-17T00:10:33.888Z,66.20
2018-08-17T00:13:02.629Z,66.00
2018-08-17T00:15:31.275Z,66.00
2018-08-17T00:18:00.664Z,66.00
2018-08-17T00:20:29.338Z,65.70
2018-08-17T00:22:59.181Z,66.00
2018-08-17T00:25:27.862Z,65.90
2018-08-17T00:27:56.433Z,66.10
2018-08-17T00:30:25.059Z,65.80
2018-08-17T00:32:53.623Z,66.30
2018-08-17T00:35:22.844Z,66.30
2018-08-17T00:37:52.668Z,66.30
2018-08-17T00:40:21.226Z,66.60
2018-08-17T00:42:49.900Z,66.60
2018-08-17T00:45:19.037Z,66.60
2018-08-17T00:47:48.473Z,66.60
2018-08-17T00:50:17.087Z,66.60
2018-08-17T00:52:45.713Z,66.80
2018-08-17T00:55:14.312Z,66.90
2018-08-17T00:57:43.123Z,67.00
2018-08-17T01:00:11.880Z,66.80
2018-08-17T01:02:40.686Z,66.10
2018-08-17T01:05:10.735Z,66.90
2018-08-17T01:07:39.435Z,66.90
2018-08-17T01:10:08.063Z,67.00
2018-08-17T01:12:36.619Z,67.00
2018-08-17T01:15:05.743Z,67.20
2018-08-17T01:17:35.008Z,67.00
2018-08-17T01:20:03.866Z,67.20
2018-08-17T01:22:32.521Z,67.00
2018-08-17T01:25:01.404Z,67.40
2018-08-17T01:27:31.193Z,67.10
2018-08-17T01:29:59.832Z,67.20
2018-08-17T01:32:28.683Z,68.00
2018-08-17T01:34:57.331Z,67.30
2018-08-17T01:37:25.897Z,67.30
2018-08-17T01:39:54.482Z,67.20
2018-08-17T01:42:23.012Z,67.40
2018-08-17T01:44:51.604Z,67.60
2018-08-17T01:47:20.146Z,67.50
2018-08-17T01:49:48.763Z,67.50
2018-08-17T01:52:17.431Z,67.40
2018-08-17T01:54:46.285Z,67.60
2018-08-17T01:57:14.821Z,67.50
2018-08-17T01:59:43.663Z,67.70
2018-08-17T02:02:12.241Z,67.50
2018-08-17T02:04:40.841Z,67.50
2018-08-17T02:07:10.344Z,68.00
2018-08-17T02:09:39.544Z,67.70
2018-08-17T02:12:08.708Z,67.50
2018-08-17T02:14:37.409Z,67.50
2018-08-17T02:17:07.226Z,67.30
2018-08-17T02:19:36.915Z,67.40
2018-08-17T02:22:05.765Z,66.90
2018-08-17T02:24:35.559Z,67.20
2018-08-17T02:27:04.235Z,67.20
2018-08-17T02:29:32.785Z,67.10
2018-08-17T02:32:01.699Z,67.10
2018-08-17T02:34:30.323Z,67.30
2018-08-17T02:36:59.098Z,67.20
2018-08-17T02:39:27.678Z,67.40
2018-08-17T02:41:56.241Z,67.60
2018-08-17T02:44:24.860Z,68.10
2018-08-17T02:46:54.074Z,67.50
2018-08-17T02:49:23.950Z,67.60
2018-08-17T02:51:52.547Z,67.50
2018-08-17T02:54:21.114Z,67.60
2018-08-17T02:56:50.116Z,67.50
2018-08-17T02:59:19.283Z,67.20
2018-08-17T03:01:47.803Z,67.30
2018-08-17T03:04:16.743Z,67.60
2018-08-17T03:06:45.356Z,67.30
2018-08-17T03:09:13.885Z,67.90
2018-08-17T03:11:42.728Z,67.60
2018-08-17T03:14:11.338Z,67.60
2018-08-17T03:16:39.911Z,67.50
2018-08-17T03:19:08.610Z,67.40
2018-08-17T03:21:37.429Z,67.20
2018-08-17T03:24:06.702Z,67.50
2018-08-17T03:26:35.325Z,67.90
2018-08-17T03:29:04.162Z,68.10
2018-08-17T03:31:32.868Z,67.70
2018-08-17T03:34:01.502Z,67.50
2018-08-17T03:36:30.062Z,67.40
2018-08-17T03:38:58.635Z,67.10
2018-08-17T03:41:27.231Z,67.50
2018-08-17T03:43:55.835Z,67.30
2018-08-17T03:46:24.415Z,67.50
2018-08-17T03:48:53.006Z,67.40
2018-08-17T03:51:21.674Z,67.70
2018-08-17T03:53:50.360Z,67.50
2018-08-17T03:56:19.752Z,67.30
2018-08-17T03:58:49.456Z,67.20
2018-08-17T04:01:18.039Z,67.30
2018-08-17T04:03:46.951Z,67.40
2018-08-17T04:06:15.509Z,67.10
2018-08-17T04:08:44.808Z,67.30
2018-08-17T04:11:13.376Z,67.40
2018-08-17T04:13:41.924Z,67.20
2018-08-17T04:16:10.478Z,67.40
2018-08-17T04:18:39.125Z,67.20
2018-08-17T04:21:07.933Z,67.00
2018-08-17T04:23:37.567Z,67.10
2018-08-17T04:26:06.279Z,67.20
2018-08-17T04:28:34.973Z,67.40
2018-08-17T04:31:03.638Z,67.20
2018-08-17T04:33:32.392Z,67.10
2018-08-17T04:36:01.341Z,67.00
2018-08-17T04:38:30.522Z,67.20
2018-08-17T04:40:59.481Z,67.00
2018-08-17T04:43:29.007Z,67.60
2018-08-17T04:45:57.640Z,67.60
2018-08-17T04:48:26.262Z,67.70
2018-08-17T04:50:54.813Z,67.70
2018-08-17T04:53:23.550Z,66.60
2018-08-17T04:55:52.207Z,67.60
2018-08-17T04:58:20.809Z,67.70
2018-08-17T05:00:50.011Z,67.40
2018-08-17T05:03:18.591Z,67.60
2018-08-17T05:05:48.131Z,69.00
2018-08-17T05:08:16.799Z,67.70
2018-08-17T05:10:46.244Z,67.70
2018-08-17T05:13:15.463Z,67.70
2018-08-17T05:15:44.332Z,67.70
2018-08-17T05:18:12.997Z,67.70
2018-08-17T05:20:41.540Z,67.80
2018-08-17T05:23:10.698Z,67.80
2018-08-17T05:25:40.035Z,67.80
2018-08-17T05:28:08.866Z,68.90
2018-08-17T05:30:38.407Z,67.70
2018-08-17T05:33:07.012Z,67.70
2018-08-17T05:35:36.272Z,67.70
2018-08-17T05:38:05.110Z,67.70
2018-08-17T05:40:33.746Z,67.70
2018-08-17T05:43:02.457Z,67.70
2018-08-17T05:45:31.444Z,67.90
2018-08-17T05:47:59.998Z,67.90
2018-08-17T05:50:32.461Z,67.90
2018-08-17T05:53:02.565Z,67.90
2018-08-17T05:55:31.642Z,67.90
2018-08-17T05:58:01.461Z,67.90
2018-08-17T06:00:30.075Z,67.90
2018-08-17T06:02:58.774Z,67.80
2018-08-17T06:05:27.458Z,67.90
2018-08-17T06:07:56.101Z,67.90
2018-08-17T06:10:25.000Z,68.00
2018-08-17T06:12:53.586Z,67.90
2018-08-17T06:15:23.606Z,67.90
2018-08-17T06:17:52.310Z,67.80
2018-08-17T06:20:20.907Z,67.90
2018-08-17T06:22:49.546Z,67.90
2018-08-17T06:25:19.079Z,68.00
2018-08-17T06:27:47.639Z,67.90
2018-08-17T06:30:16.308Z,67.90
2018-08-17T06:32:45.023Z,68.10
2018-08-17T06:35:14.884Z,68.50
2018-08-17T06:37:44.328Z,69.10
2018-08-17T06:40:13.049Z,69.40
2018-08-17T06:42:42.218Z,69.10
2018-08-17T06:45:12.280Z,70.20
2018-08-17T06:47:41.105Z,70.40
2018-08-17T06:50:11.094Z,70.30
2018-08-17T06:52:40.828Z,70.10
2018-08-17T06:55:10.873Z,69.80
2018-08-17T06:57:41.285Z,71.00
2018-08-17T07:00:13.918Z,69.80
2018-08-17T07:02:43.576Z,69.10
2018-08-17T07:05:12.965Z,68.00
2018-08-17T07:07:42.037Z,68.00
2018-08-17T07:10:12.849Z,69.10
2018-08-17T07:12:42.407Z,67.30
2018-08-17T07:15:11.445Z,66.40
2018-08-17T07:17:40.699Z,66.90
2018-08-17T07:20:10.967Z,67.20
2018-08-17T07:22:42.479Z,67.80
2018-08-17T07:25:11.716Z,67.30
2018-08-17T07:27:40.322Z,67.50
2018-08-17T07:30:09.850Z,67.00
2018-08-17T07:32:40.248Z,66.90
2018-08-17T07:35:10.215Z,66.60
2018-08-17T07:37:39.957Z,66.60
2018-08-17T07:40:09.280Z,65.80
2018-08-17T07:42:37.958Z,66.10
2018-08-17T07:45:07.173Z,65.30
2018-08-17T07:47:35.739Z,66.20
2018-08-17T07:50:04.751Z,66.10
2018-08-17T07:52:33.252Z,66.20
2018-08-17T07:55:02.773Z,66.40
2018-08-17T07:57:31.353Z,66.40
2018-08-17T07:59:59.969Z,66.20
2018-08-17T08:02:28.520Z,66.20
2018-08-17T08:04:57.101Z,66.20
2018-08-17T08:07:26.393Z,66.20
2018-08-17T08:09:55.098Z,66.40
2018-08-17T08:12:24.693Z,66.50
2018-08-17T08:14:53.293Z,66.70
2018-08-17T08:17:21.863Z,67.00
2018-08-17T08:20:02.550Z,66.90
2018-08-17T08:22:31.294Z,66.80
2018-08-17T08:25:00.731Z,66.80
2018-08-17T08:27:29.985Z,66.60
2018-08-17T08:29:58.607Z,66.50
2018-08-17T08:32:28.092Z,66.20
2018-08-17T08:34:57.580Z,66.40
2018-08-17T08:37:26.202Z,66.60
2018-08-17T08:39:55.440Z,66.50
2018-08-17T08:42:24.884Z,66.80
2018-08-17T08:44:54.459Z,67.20
2018-08-17T08:47:23.023Z,67.40
2018-08-17T08:49:51.925Z,68.30
2018-08-17T08:52:20.523Z,68.20
2018-08-17T08:54:49.269Z,68.20
2018-08-17T08:57:18.156Z,68.20
2018-08-17T08:59:47.404Z,68.30
2018-08-17T09:02:16.044Z,69.40
2018-08-17T09:04:44.597Z,68.20
2018-08-17T09:07:13.176Z,67.70
2018-08-17T09:09:41.806Z,67.20
2018-08-17T09:12:12.659Z,67.10
2018-08-17T09:14:41.209Z,67.30
2018-08-17T09:17:09.815Z,67.10
2018-08-17T09:19:38.444Z,67.20
2018-08-17T09:22:07.210Z,68.80
2018-08-17T09:24:35.794Z,67.30
2018-08-17T09:27:04.380Z,68.30
2018-08-17T09:29:33.073Z,69.10
2018-08-17T09:32:01.801Z,68.20
2018-08-17T09:34:30.788Z,68.30
2018-08-17T09:36:59.481Z,68.20
2018-08-17T09:39:28.477Z,68.10
2018-08-17T09:41:57.483Z,68.80
2018-08-17T09:44:26.226Z,68.20
2018-08-17T09:46:54.988Z,68.00
2018-08-17T09:49:24.434Z,68.10
2018-08-17T09:51:53.097Z,68.00
2018-08-17T09:54:21.668Z,68.00
2018-08-17T09:56:50.283Z,67.80
2018-08-17T09:59:20.762Z,67.70
2018-08-17T10:01:55.697Z,67.90
2018-08-17T10:04:29.742Z,67.60
2018-08-17T10:07:03.836Z,67.70
2018-08-17T10:09:37.971Z,67.80
2018-08-17T10:12:06.954Z,68.30
2018-08-17T10:14:35.545Z,68.10
2018-08-17T10:17:04.769Z,67.60
2018-08-17T10:19:33.380Z,67.60
2018-08-17T10:22:02.241Z,67.50
2018-08-17T10:24:30.635Z,67.50
2018-08-17T10:26:59.359Z,67.50
2018-08-17T10:29:28.685Z,67.50
2018-08-17T10:31:57.797Z,67.80
2018-08-17T10:34:26.463Z,68.90
2018-08-17T10:36:55.004Z,67.70
2018-08-17T10:39:23.584Z,67.80
2018-08-17T10:41:53.046Z,67.70
2018-08-17T10:44:21.610Z,67.70
2018-08-17T10:46:51.386Z,67.70
2018-08-17T10:49:20.667Z,67.60
2018-08-17T10:51:49.298Z,67.60
2018-08-17T10:54:17.979Z,67.60
2018-08-17T10:56:46.573Z,67.50
2018-08-17T10:59:15.104Z,67.70
2018-08-17T11:01:45.004Z,67.70
2018-08-17T11:04:13.742Z,67.80
2018-08-17T11:06:42.422Z,68.00
2018-08-17T11:09:12.742Z,68.00
2018-08-17T11:11:42.428Z,68.00
2018-08-17T11:14:11.005Z,68.10
2018-08-17T11:16:39.608Z,68.10
2018-08-17T11:19:09.236Z,68.20
2018-08-17T11:21:37.842Z,68.60
2018-08-17T11:24:06.646Z,68.60
2018-08-17T11:26:35.970Z,68.50
2018-08-17T11:29:04.786Z,68.60
2018-08-17T11:31:33.322Z,68.50
2018-08-17T11:34:01.933Z,68.70
2018-08-17T11:36:30.816Z,68.70
2018-08-17T11:38:59.419Z,68.70
2018-08-17T11:41:28.477Z,68.70
2018-08-17T11:43:59.562Z,68.70
2018-08-17T11:46:28.334Z,68.70
2018-08-17T11:48:56.974Z,68.80
2018-08-17T11:51:25.558Z,68.80
2018-08-17T11:53:55.550Z,68.80
2018-08-17T11:56:24.293Z,68.80
2018-08-17T11:58:52.849Z,68.80
2018-08-17T12:01:31.810Z,68.80
2018-08-17T12:04:00.400Z,68.80
2018-08-17T12:06:29.416Z,68.90
2018-08-17T12:08:59.722Z,68.90
2018-08-17T12:11:28.335Z,68.90
2018-08-17T12:13:56.963Z,68.90
2018-08-17T12:16:25.650Z,68.80
2018-08-17T12:18:54.446Z,68.90
2018-08-17T12:21:23.026Z,68.90
2018-08-17T12:23:53.136Z,68.90
2018-08-17T12:26:21.750Z,69.00
2018-08-17T12:28:50.510Z,69.00
2018-08-17T12:31:19.258Z,69.00
2018-08-17T12:33:48.939Z,69.00
2018-08-17T12:36:18.043Z,69.00
2018-08-17T12:38:46.677Z,69.00
2018-08-17T12:41:15.207Z,69.00
2018-08-17T12:43:43.762Z,69.00
2018-08-17T12:46:12.605Z,69.20
2018-08-17T12:48:41.194Z,69.00
2018-08-17T12:51:10.597Z,69.20
2018-08-17T12:53:39.305Z,69.20
2018-08-17T12:56:08.591Z,69.20
2018-08-17T12:58:37.145Z,69.20
2018-08-17T13:01:05.877Z,69.20
2018-08-17T13:03:35.224Z,69.20
2018-08-17T13:06:03.906Z,69.20
2018-08-17T13:08:33.642Z,69.20
2018-08-17T13:11:02.262Z,69.20
2018-08-17T13:13:33.072Z,69.20
2018-08-17T13:16:05.794Z,69.30
2018-08-17T13:18:37.255Z,69.30
2018-08-17T13:21:07.401Z,69.70
2018-08-17T13:23:36.859Z,69.80
2018-08-17T13:26:05.482Z,69.30
2018-08-17T13:28:34.086Z,69.30
2018-08-17T13:31:02.765Z,69.30
2018-08-17T13:33:32.770Z,69.40
2018-08-17T13:36:01.420Z,69.50
2018-08-17T13:38:30.223Z,69.70
2018-08-17T13:40:58.821Z,70.00
2018-08-17T13:43:27.506Z,70.10
2018-08-17T13:45:57.553Z,70.00
2018-08-17T13:48:27.203Z,70.10
2018-08-17T13:50:55.830Z,70.00
2018-08-17T13:53:24.476Z,70.10
2018-08-17T13:55:53.065Z,70.10
2018-08-17T13:58:21.681Z,70.10
2018-08-17T14:00:50.335Z,70.10
2018-08-17T14:03:18.939Z,70.20
2018-08-17T14:05:47.667Z,70.40
2018-08-17T14:08:16.468Z,70.20
2018-08-17T14:10:45.052Z,70.10
2018-08-17T14:13:13.884Z,69.80
2018-08-17T14:15:42.659Z,69.90
2018-08-17T14:18:11.907Z,69.90
2018-08-17T14:20:40.640Z,70.10
2018-08-17T14:23:09.448Z,70.20
2018-08-17T14:25:39.047Z,70.30
2018-08-17T14:28:08.164Z,70.40
2018-08-17T14:30:38.502Z,70.40
2018-08-17T14:33:07.122Z,70.50
2018-08-17T14:35:35.828Z,70.50
2018-08-17T14:38:04.427Z,70.70
2018-08-17T14:40:33.017Z,70.80
2018-08-17T14:43:02.218Z,70.60
2018-08-17T14:45:30.786Z,70.90
2018-08-17T14:48:00.175Z,70.40
2018-08-17T14:50:28.691Z,70.10
2018-08-17T14:52:57.551Z,69.70
2018-08-17T14:55:27.326Z,69.50
2018-08-17T14:57:55.982Z,68.80
2018-08-17T15:00:24.596Z,68.80
2018-08-17T15:02:54.107Z,68.50
2018-08-17T15:05:22.729Z,68.30
2018-08-17T15:07:51.261Z,68.10
2018-08-17T15:10:19.797Z,68.00
2018-08-17T15:12:48.598Z,68.70
2018-08-17T15:15:17.193Z,68.20
2018-08-17T15:17:45.846Z,68.20
2018-08-17T15:20:14.440Z,68.10
2018-08-17T15:22:44.305Z,68.10
2018-08-17T15:25:12.827Z,68.50
2018-08-17T15:27:42.083Z,68.30
2018-08-17T15:30:11.984Z,68.10
2018-08-17T15:32:41.559Z,68.30
2018-08-17T15:35:10.764Z,68.40
2018-08-17T15:37:40.378Z,68.80
2018-08-17T15:40:11.160Z,68.90
2018-08-17T15:42:40.175Z,68.50
2018-08-17T15:45:09.542Z,68.40
2018-08-17T15:47:39.154Z,68.50
2018-08-17T15:50:13.923Z,68.30
2018-08-17T15:52:43.075Z,68.50
2018-08-17T15:55:12.081Z,68.40
2018-08-17T15:57:40.749Z,68.30
2018-08-17T16:00:15.114Z,68.10
2018-08-17T16:02:43.760Z,67.50
2018-08-17T16:05:13.466Z,67.30
2018-08-17T16:07:42.264Z,67.20
2018-08-17T16:10:13.865Z,67.20
2018-08-17T16:12:42.821Z,68.10
2018-08-17T16:15:11.719Z,67.90
2018-08-17T16:17:40.319Z,67.10
2018-08-17T16:20:11.070Z,67.20
2018-08-17T16:22:42.959Z,67.00
2018-08-17T16:25:12.575Z,66.80
2018-08-17T16:27:42.308Z,66.90
2018-08-17T16:30:13.811Z,66.70
2018-08-17T16:32:42.776Z,67.80
2018-08-17T16:35:12.502Z,66.40
2018-08-17T16:37:43.941Z,66.90
2018-08-17T16:40:12.725Z,66.80
2018-08-17T16:42:41.985Z,66.90
2018-08-17T16:45:11.823Z,67.00
2018-08-17T16:47:40.382Z,67.20
2018-08-17T16:50:09.578Z,67.40
2018-08-17T16:52:38.210Z,67.40
2018-08-17T16:55:07.513Z,67.50
2018-08-17T16:57:37.581Z,67.40
2018-08-17T17:00:08.991Z,67.20
2018-08-17T17:02:39.780Z,67.30
2018-08-17T17:05:09.112Z,67.10
2018-08-17T17:07:37.668Z,67.30
2018-08-17T17:10:09.340Z,67.00
2018-08-17T17:12:38.338Z,67.00
2018-08-17T17:15:19.685Z,67.40
2018-08-17T17:18:00.207Z,66.80
2018-08-17T17:20:36.397Z,66.60
2018-08-17T17:23:08.493Z,66.60
2018-08-17T17:25:37.361Z,66.80
2018-08-17T17:28:06.619Z,67.00
2018-08-17T17:30:44.868Z,67.00
2018-08-17T17:33:13.369Z,67.00
2018-08-17T17:35:43.574Z,67.10
2018-08-17T17:38:12.657Z,67.70
2018-08-17T17:40:41.793Z,67.40
2018-08-17T17:43:10.802Z,67.80
2018-08-17T17:45:39.902Z,68.00
2018-08-17T17:48:09.452Z,68.30
2018-08-17T17:50:38.161Z,68.30
2018-08-17T17:53:06.994Z,68.40
2018-08-17T17:55:43.972Z,68.50
2018-08-17T17:58:14.403Z,69.00
2018-08-17T18:00:52.293Z,68.70
2018-08-17T18:03:21.133Z,68.80
2018-08-17T18:05:50.243Z,68.70
2018-08-17T18:08:19.902Z,68.40
2018-08-17T18:10:49.111Z,68.40
2018-08-17T18:13:18.724Z,68.30
2018-08-17T18:15:48.214Z,68.30
2018-08-17T18:18:16.786Z,68.40
2018-08-17T18:20:45.342Z,68.50
2018-08-17T18:23:13.914Z,68.30
2018-08-17T18:25:42.520Z,68.30
2018-08-17T18:28:11.234Z,68.30
2018-08-17T18:30:40.927Z,68.50
2018-08-17T18:33:12.123Z,68.60
2018-08-17T18:35:40.771Z,68.90
2018-08-17T18:38:09.487Z,68.50
2018-08-17T18:40:38.123Z,68.30
2018-08-17T18:43:08.156Z,68.10
2018-08-17T18:45:38.441Z,68.00
2018-08-17T18:48:08.059Z,67.90
2018-08-17T18:50:36.635Z,67.80
2018-08-17T18:53:05.262Z,68.10
2018-08-17T18:55:33.789Z,67.60
2018-08-17T18:58:02.405Z,67.70
2018-08-17T19:00:31.075Z,67.60
2018-08-17T19:03:00.973Z,67.70
2018-08-17T19:05:30.064Z,67.60
2018-08-17T19:07:58.632Z,67.70
2018-08-17T19:10:27.195Z,67.60
2018-08-17T19:12:56.733Z,67.70
2018-08-17T19:15:26.047Z,67.90
2018-08-17T19:17:54.623Z,67.00
2018-08-17T19:20:23.689Z,67.80
2018-08-17T19:22:52.326Z,67.80
2018-08-17T19:25:21.530Z,68.20
2018-08-17T19:27:50.231Z,68.40
2018-08-17T19:30:25.266Z,68.80
2018-08-17T19:32:55.380Z,69.00
2018-08-17T19:35:24.119Z,68.90
2018-08-17T19:37:53.221Z,69.20
2018-08-17T19:40:22.366Z,69.40
2018-08-17T19:42:50.953Z,69.90
2018-08-17T19:45:20.494Z,70.00
2018-08-17T19:47:49.597Z,70.70
2018-08-17T19:50:18.163Z,71.20
2018-08-17T19:52:47.953Z,71.10
2018-08-17T19:55:16.633Z,71.30
2018-08-17T19:57:46.335Z,70.90
2018-08-17T20:00:15.066Z,70.60
2018-08-17T20:02:43.757Z,70.60
2018-08-17T20:05:12.422Z,70.70
2018-08-17T20:07:40.997Z,70.20
2018-08-17T20:10:11.048Z,71.10
2018-08-17T20:12:41.142Z,71.20
2018-08-17T20:15:10.140Z,71.20
2018-08-17T20:17:40.035Z,71.40
2018-08-17T20:20:10.617Z,72.40
2018-08-17T20:22:39.209Z,71.30
2018-08-17T20:25:13.960Z,71.20
2018-08-17T20:27:43.117Z,71.20
2018-08-17T20:30:17.276Z,71.10
2018-08-17T20:32:46.656Z,71.20
2018-08-17T20:35:15.703Z,71.20
2018-08-17T20:37:49.743Z,71.20
2018-08-17T20:40:19.651Z,71.30
2018-08-17T20:42:48.500Z,71.40
2018-08-17T20:45:17.147Z,71.30
2018-08-17T20:47:47.705Z,71.40
2018-08-17T20:50:18.582Z,71.30
2018-08-17T20:52:53.284Z,71.40
2018-08-17T20:55:21.877Z,71.30
2018-08-17T20:57:52.362Z,71.40
2018-08-17T21:00:22.192Z,71.40
2018-08-17T21:02:50.883Z,71.60
2018-08-17T21:05:19.725Z,71.60
2018-08-17T21:07:48.948Z,71.50
2018-08-17T21:10:17.573Z,71.40
2018-08-17T21:12:47.002Z,71.50
2018-08-17T21:15:15.963Z,71.70
2018-08-17T21:17:44.523Z,71.60
2018-08-17T21:20:13.336Z,71.60
2018-08-17T21:22:42.739Z,71.50
2018-08-17T21:25:12.523Z,71.50
2018-08-17T21:27:41.117Z,71.40
2018-08-17T21:30:12.302Z,71.50
2018-08-17T21:32:42.495Z,71.50
2018-08-17T21:35:11.039Z,71.50
2018-08-17T21:37:39.625Z,71.50
2018-08-17T21:40:19.530Z,71.50
2018-08-17T21:42:48.170Z,71.50
2018-08-17T21:45:16.806Z,71.80
2018-08-17T21:47:45.732Z,71.90
2018-08-17T21:50:15.748Z,72.00
2018-08-17T21:52:45.449Z,72.00
2018-08-17T21:55:14.458Z,72.00
2018-08-17T21:57:43.462Z,72.20
2018-08-17T22:00:28.950Z,72.20
2018-08-17T22:02:57.796Z,72.20
2018-08-17T22:05:29.358Z,72.20
2018-08-17T22:07:58.460Z,72.30
2018-08-17T22:10:27.171Z,73.30
2018-08-17T22:12:56.017Z,72.30
2018-08-17T22:15:27.066Z,72.40
2018-08-17T22:17:55.728Z,72.40
2018-08-17T22:20:25.342Z,72.40
2018-08-17T22:22:53.997Z,72.20
2018-08-17T22:25:22.593Z,71.90
2018-08-17T22:27:52.017Z,72.10
2018-08-17T22:30:23.142Z,72.60
2018-08-17T22:32:53.750Z,72.20
2018-08-17T22:35:22.339Z,72.40
2018-08-17T22:37:50.884Z,72.40
2018-08-17T22:40:19.480Z,72.70
2018-08-17T22:42:49.411Z,72.50
2018-08-17T22:45:17.947Z,72.50
2018-08-17T22:47:46.603Z,72.70
2018-08-17T22:50:15.118Z,73.10
2018-08-17T22:52:44.196Z,73.00
2018-08-17T22:55:12.732Z,73.10
2018-08-17T22:57:41.368Z,73.20
2018-08-17T23:00:19.495Z,73.20
2018-08-17T23:02:49.697Z,73.20
2018-08-17T23:05:20.003Z,73.10
2018-08-17T23:07:49.671Z,73.10
2018-08-17T23:10:19.568Z,73.20
2018-08-17T23:12:49.227Z,73.00
2018-08-17T23:15:17.854Z,72.90
2018-08-17T23:17:50.166Z,72.90
2018-08-17T23:20:23.842Z,72.80
2018-08-17T23:22:54.576Z,72.60
2018-08-17T23:25:24.236Z,72.50
2018-08-17T23:27:53.427Z,72.70
2018-08-17T23:30:22.183Z,72.50
2018-08-17T23:32:51.043Z,72.20
2018-08-17T23:35:19.569Z,72.30
2018-08-17T23:37:48.200Z,72.20
2018-08-17T23:40:16.793Z,73.40
2018-08-17T23:42:46.486Z,72.20
2018-08-17T23:45:16.380Z,72.40
2018-08-17T23:47:45.032Z,72.50
2018-08-17T23:50:14.693Z,72.30
2018-08-17T23:52:44.809Z,72.30
2018-08-17T23:55:16.120Z,72.30
2018-08-17T23:57:44.714Z,72.50
